sensor_id;sensor_type;location;lat;lon;timestamp;P1;durP1;ratioP1;P2;durP2;ratioP2
17441;SDS011;8838;50.144;8.176;2023-04-27T00:00:52;7.17;;;2.90;;
17441;SDS011;8838;50.144;8.176;2023-04-27T00:03:18;4.83;;;2.90;;
17441;SDS011;8838;50.144;8.176;2023-04-27T00:05:47;9.73;;;3.63;;
17441;SDS011;8838;50.144;8.176;2023-04-27T00:08:13;7.03;;;3.40;;
17441;SDS011;8838;50.144;8.176;2023-04-27T00:10:40;6.93;;;3.17;;
17441;SDS011;8838;50.144;8.176;2023-04-27T00:13:07;7.90;;;3.00;;
17441;SDS011;8838;50.144;8.176;2023-04-27T00:15:34;5.93;;;2.77;;
17441;SDS011;8838;50.144;8.176;2023-04-27T00:18:00;6.00;;;2.93;;
17441;SDS011;8838;50.144;8.176;2023-04-27T00:20:27;6.10;;;2.97;;
17441;SDS011;8838;50.144;8.176;2023-04-27T00:22:55;8.97;;;3.30;;
17441;SDS011;8838;50.144;8.176;2023-04-27T00:25:22;5.50;;;2.83;;
17441;SDS011;8838;50.144;8.176;2023-04-27T00:27:49;4.93;;;3.03;;
17441;SDS011;8838;50.144;8.176;2023-04-27T00:30:16;4.47;;;2.67;;
17441;SDS011;8838;50.144;8.176;2023-04-27T00:32:42;5.83;;;2.70;;
17441;SDS011;8838;50.144;8.176;2023-04-27T00:35:09;5.23;;;2.67;;
17441;SDS011;8838;50.144;8.176;2023-04-27T00:37:36;4.07;;;2.90;;
17441;SDS011;8838;50.144;8.176;2023-04-27T00:40:05;6.53;;;3.30;;
17441;SDS011;8838;50.144;8.176;2023-04-27T00:42:33;6.53;;;2.83;;
17441;SDS011;8838;50.144;8.176;2023-04-27T00:45:00;7.30;;;3.13;;
17441;SDS011;8838;50.144;8.176;2023-04-27T00:47:29;8.13;;;3.13;;
17441;SDS011;8838;50.144;8.176;2023-04-27T00:49:56;5.50;;;2.80;;
17441;SDS011;8838;50.144;8.176;2023-04-27T00:52:23;6.10;;;2.90;;
17441;SDS011;8838;50.144;8.176;2023-04-27T00:54:51;7.23;;;3.07;;
17441;SDS011;8838;50.144;8.176;2023-04-27T00:57:19;7.00;;;2.83;;
17441;SDS011;8838;50.144;8.176;2023-04-27T00:59:47;7.90;;;3.50;;
17441;SDS011;8838;50.144;8.176;2023-04-27T01:02:14;7.40;;;3.30;;
17441;SDS011;8838;50.144;8.176;2023-04-27T01:04:41;8.10;;;3.30;;
17441;SDS011;8838;50.144;8.176;2023-04-27T01:07:08;6.47;;;3.10;;
17441;SDS011;8838;50.144;8.176;2023-04-27T01:09:35;5.50;;;3.57;;
17441;SDS011;8838;50.144;8.176;2023-04-27T01:12:02;5.73;;;3.30;;
17441;SDS011;8838;50.144;8.176;2023-04-27T01:14:30;9.17;;;3.70;;
17441;SDS011;8838;50.144;8.176;2023-04-27T01:16:57;7.43;;;3.63;;
17441;SDS011;8838;50.144;8.176;2023-04-27T01:19:24;5.57;;;3.07;;
17441;SDS011;8838;50.144;8.176;2023-04-27T01:21:50;6.53;;;3.50;;
17441;SDS011;8838;50.144;8.176;2023-04-27T01:24:19;6.00;;;3.53;;
17441;SDS011;8838;50.144;8.176;2023-04-27T01:26:46;9.10;;;3.53;;
17441;SDS011;8838;50.144;8.176;2023-04-27T01:29:13;6.20;;;3.37;;
17441;SDS011;8838;50.144;8.176;2023-04-27T01:31:40;6.87;;;4.43;;
17441;SDS011;8838;50.144;8.176;2023-04-27T01:34:07;7.87;;;4.10;;
17441;SDS011;8838;50.144;8.176;2023-04-27T01:36:34;6.03;;;3.53;;
17441;SDS011;8838;50.144;8.176;2023-04-27T01:39:01;6.63;;;3.83;;
17441;SDS011;8838;50.144;8.176;2023-04-27T01:41:29;5.50;;;4.00;;
17441;SDS011;8838;50.144;8.176;2023-04-27T01:43:56;5.17;;;3.43;;
17441;SDS011;8838;50.144;8.176;2023-04-27T01:46:23;7.27;;;3.93;;
17441;SDS011;8838;50.144;8.176;2023-04-27T01:48:50;7.20;;;3.23;;
17441;SDS011;8838;50.144;8.176;2023-04-27T01:51:17;6.43;;;3.00;;
17441;SDS011;8838;50.144;8.176;2023-04-27T01:53:44;6.63;;;3.07;;
17441;SDS011;8838;50.144;8.176;2023-04-27T01:56:11;7.67;;;3.40;;
17441;SDS011;8838;50.144;8.176;2023-04-27T01:58:39;9.47;;;3.47;;
17441;SDS011;8838;50.144;8.176;2023-04-27T02:01:06;6.07;;;3.23;;
17441;SDS011;8838;50.144;8.176;2023-04-27T02:03:33;7.23;;;3.00;;
17441;SDS011;8838;50.144;8.176;2023-04-27T02:05:59;8.60;;;3.30;;
17441;SDS011;8838;50.144;8.176;2023-04-27T02:08:26;8.40;;;3.90;;
17441;SDS011;8838;50.144;8.176;2023-04-27T02:10:53;6.53;;;3.70;;
17441;SDS011;8838;50.144;8.176;2023-04-27T02:13:20;7.97;;;4.23;;
17441;SDS011;8838;50.144;8.176;2023-04-27T02:15:48;6.27;;;3.50;;
17441;SDS011;8838;50.144;8.176;2023-04-27T02:18:15;8.37;;;3.90;;
17441;SDS011;8838;50.144;8.176;2023-04-27T02:20:42;7.63;;;3.70;;
17441;SDS011;8838;50.144;8.176;2023-04-27T02:23:09;6.90;;;3.73;;
17441;SDS011;8838;50.144;8.176;2023-04-27T02:25:36;7.73;;;3.73;;
17441;SDS011;8838;50.144;8.176;2023-04-27T02:28:06;11.00;;;3.50;;
17441;SDS011;8838;50.144;8.176;2023-04-27T02:30:33;4.33;;;3.20;;
17441;SDS011;8838;50.144;8.176;2023-04-27T02:33:03;6.43;;;3.13;;
17441;SDS011;8838;50.144;8.176;2023-04-27T02:35:29;6.07;;;3.10;;
17441;SDS011;8838;50.144;8.176;2023-04-27T02:37:57;6.40;;;3.30;;
17441;SDS011;8838;50.144;8.176;2023-04-27T02:40:24;6.33;;;3.13;;
17441;SDS011;8838;50.144;8.176;2023-04-27T02:42:50;5.93;;;3.17;;
17441;SDS011;8838;50.144;8.176;2023-04-27T02:45:17;10.07;;;3.53;;
17441;SDS011;8838;50.144;8.176;2023-04-27T02:47:44;4.43;;;3.20;;
17441;SDS011;8838;50.144;8.176;2023-04-27T02:50:12;8.00;;;3.83;;
17441;SDS011;8838;50.144;8.176;2023-04-27T02:52:39;9.23;;;3.90;;
17441;SDS011;8838;50.144;8.176;2023-04-27T02:55:06;6.80;;;3.80;;
17441;SDS011;8838;50.144;8.176;2023-04-27T02:57:33;5.73;;;3.60;;
17441;SDS011;8838;50.144;8.176;2023-04-27T03:00:00;7.33;;;4.17;;
17441;SDS011;8838;50.144;8.176;2023-04-27T03:02:28;7.43;;;3.77;;
17441;SDS011;8838;50.144;8.176;2023-04-27T03:04:55;6.13;;;3.77;;
17441;SDS011;8838;50.144;8.176;2023-04-27T03:07:24;8.27;;;3.87;;
17441;SDS011;8838;50.144;8.176;2023-04-27T03:09:51;5.37;;;3.07;;
17441;SDS011;8838;50.144;8.176;2023-04-27T03:12:18;6.47;;;3.10;;
17441;SDS011;8838;50.144;8.176;2023-04-27T03:14:44;4.57;;;3.20;;
17441;SDS011;8838;50.144;8.176;2023-04-27T03:17:17;6.30;;;3.40;;
17441;SDS011;8838;50.144;8.176;2023-04-27T03:19:45;12.70;;;3.60;;
17441;SDS011;8838;50.144;8.176;2023-04-27T03:22:13;10.40;;;3.57;;
17441;SDS011;8838;50.144;8.176;2023-04-27T03:24:41;7.03;;;3.73;;
17441;SDS011;8838;50.144;8.176;2023-04-27T03:27:08;5.57;;;3.47;;
17441;SDS011;8838;50.144;8.176;2023-04-27T03:29:35;5.37;;;3.40;;
17441;SDS011;8838;50.144;8.176;2023-04-27T03:32:02;5.50;;;3.17;;
17441;SDS011;8838;50.144;8.176;2023-04-27T03:34:29;5.53;;;3.43;;
17441;SDS011;8838;50.144;8.176;2023-04-27T03:36:56;7.70;;;3.40;;
17441;SDS011;8838;50.144;8.176;2023-04-27T03:39:23;7.53;;;3.80;;
17441;SDS011;8838;50.144;8.176;2023-04-27T03:41:51;5.53;;;3.50;;
17441;SDS011;8838;50.144;8.176;2023-04-27T03:44:18;5.27;;;3.80;;
17441;SDS011;8838;50.144;8.176;2023-04-27T03:46:45;6.10;;;3.13;;
17441;SDS011;8838;50.144;8.176;2023-04-27T03:49:12;9.33;;;3.70;;
17441;SDS011;8838;50.144;8.176;2023-04-27T03:51:38;11.13;;;3.40;;
17441;SDS011;8838;50.144;8.176;2023-04-27T03:54:06;7.53;;;3.40;;
17441;SDS011;8838;50.144;8.176;2023-04-27T03:56:33;6.13;;;3.30;;
17441;SDS011;8838;50.144;8.176;2023-04-27T03:59:01;5.53;;;3.53;;
17441;SDS011;8838;50.144;8.176;2023-04-27T04:01:28;9.13;;;3.90;;
17441;SDS011;8838;50.144;8.176;2023-04-27T04:03:55;10.13;;;4.10;;
17441;SDS011;8838;50.144;8.176;2023-04-27T04:06:22;8.73;;;4.17;;
17441;SDS011;8838;50.144;8.176;2023-04-27T04:08:49;8.07;;;4.07;;
17441;SDS011;8838;50.144;8.176;2023-04-27T04:11:16;7.90;;;4.00;;
17441;SDS011;8838;50.144;8.176;2023-04-27T04:13:42;9.27;;;3.97;;
17441;SDS011;8838;50.144;8.176;2023-04-27T04:16:10;7.70;;;4.10;;
17441;SDS011;8838;50.144;8.176;2023-04-27T04:18:37;9.07;;;3.60;;
17441;SDS011;8838;50.144;8.176;2023-04-27T04:21:04;6.70;;;3.57;;
17441;SDS011;8838;50.144;8.176;2023-04-27T04:23:31;7.67;;;4.23;;
17441;SDS011;8838;50.144;8.176;2023-04-27T04:25:58;7.17;;;3.77;;
17441;SDS011;8838;50.144;8.176;2023-04-27T04:28:26;7.20;;;3.77;;
17441;SDS011;8838;50.144;8.176;2023-04-27T04:30:52;5.40;;;3.70;;
17441;SDS011;8838;50.144;8.176;2023-04-27T04:33:21;6.13;;;3.43;;
17441;SDS011;8838;50.144;8.176;2023-04-27T04:35:48;8.93;;;3.40;;
17441;SDS011;8838;50.144;8.176;2023-04-27T04:38:15;6.70;;;3.40;;
17441;SDS011;8838;50.144;8.176;2023-04-27T04:40:42;6.97;;;3.53;;
17441;SDS011;8838;50.144;8.176;2023-04-27T04:43:09;7.27;;;3.57;;
17441;SDS011;8838;50.144;8.176;2023-04-27T04:45:37;5.23;;;3.67;;
17441;SDS011;8838;50.144;8.176;2023-04-27T04:48:04;8.67;;;4.23;;
17441;SDS011;8838;50.144;8.176;2023-04-27T04:50:32;6.90;;;3.83;;
17441;SDS011;8838;50.144;8.176;2023-04-27T04:52:59;8.47;;;3.97;;
17441;SDS011;8838;50.144;8.176;2023-04-27T04:55:26;7.07;;;4.67;;
17441;SDS011;8838;50.144;8.176;2023-04-27T04:57:53;11.87;;;3.87;;
17441;SDS011;8838;50.144;8.176;2023-04-27T05:00:20;6.17;;;3.67;;
17441;SDS011;8838;50.144;8.176;2023-04-27T05:02:47;8.53;;;4.07;;
17441;SDS011;8838;50.144;8.176;2023-04-27T05:05:14;8.30;;;4.73;;
17441;SDS011;8838;50.144;8.176;2023-04-27T05:07:42;9.17;;;4.37;;
17441;SDS011;8838;50.144;8.176;2023-04-27T05:10:09;9.37;;;4.03;;
17441;SDS011;8838;50.144;8.176;2023-04-27T05:12:36;6.53;;;4.40;;
17441;SDS011;8838;50.144;8.176;2023-04-27T05:15:03;5.63;;;3.90;;
17441;SDS011;8838;50.144;8.176;2023-04-27T05:17:30;6.27;;;3.70;;
17441;SDS011;8838;50.144;8.176;2023-04-27T05:19:57;6.83;;;3.90;;
17441;SDS011;8838;50.144;8.176;2023-04-27T05:22:24;6.53;;;3.70;;
17441;SDS011;8838;50.144;8.176;2023-04-27T05:24:53;8.63;;;4.40;;
17441;SDS011;8838;50.144;8.176;2023-04-27T05:27:19;6.10;;;4.00;;
17441;SDS011;8838;50.144;8.176;2023-04-27T05:29:46;6.63;;;3.87;;
17441;SDS011;8838;50.144;8.176;2023-04-27T05:32:14;8.67;;;4.27;;
17441;SDS011;8838;50.144;8.176;2023-04-27T05:34:40;8.77;;;4.20;;
17441;SDS011;8838;50.144;8.176;2023-04-27T05:37:08;10.07;;;4.80;;
17441;SDS011;8838;50.144;8.176;2023-04-27T05:39:35;8.03;;;4.80;;
17441;SDS011;8838;50.144;8.176;2023-04-27T05:42:04;11.17;;;5.57;;
17441;SDS011;8838;50.144;8.176;2023-04-27T05:44:31;8.90;;;4.23;;
17441;SDS011;8838;50.144;8.176;2023-04-27T05:46:58;8.87;;;5.00;;
17441;SDS011;8838;50.144;8.176;2023-04-27T05:49:25;8.07;;;4.87;;
17441;SDS011;8838;50.144;8.176;2023-04-27T05:51:52;8.87;;;4.53;;
17441;SDS011;8838;50.144;8.176;2023-04-27T05:54:18;12.47;;;4.50;;
17441;SDS011;8838;50.144;8.176;2023-04-27T05:56:45;8.37;;;4.23;;
17441;SDS011;8838;50.144;8.176;2023-04-27T05:59:13;10.40;;;4.40;;
17441;SDS011;8838;50.144;8.176;2023-04-27T06:01:40;8.47;;;4.40;;
17441;SDS011;8838;50.144;8.176;2023-04-27T06:04:07;9.07;;;5.30;;
17441;SDS011;8838;50.144;8.176;2023-04-27T06:06:34;8.83;;;4.73;;
17441;SDS011;8838;50.144;8.176;2023-04-27T06:09:01;9.03;;;4.80;;
17441;SDS011;8838;50.144;8.176;2023-04-27T06:11:28;8.23;;;4.43;;
17441;SDS011;8838;50.144;8.176;2023-04-27T06:13:54;12.90;;;5.00;;
17441;SDS011;8838;50.144;8.176;2023-04-27T06:16:23;9.17;;;5.00;;
17441;SDS011;8838;50.144;8.176;2023-04-27T06:18:49;8.77;;;4.80;;
17441;SDS011;8838;50.144;8.176;2023-04-27T06:21:16;12.03;;;4.97;;
17441;SDS011;8838;50.144;8.176;2023-04-27T06:23:43;10.47;;;4.90;;
17441;SDS011;8838;50.144;8.176;2023-04-27T06:26:10;12.87;;;5.47;;
17441;SDS011;8838;50.144;8.176;2023-04-27T06:28:37;18.10;;;5.50;;
17441;SDS011;8838;50.144;8.176;2023-04-27T06:31:04;9.80;;;5.17;;
17441;SDS011;8838;50.144;8.176;2023-04-27T06:33:32;13.20;;;4.60;;
17441;SDS011;8838;50.144;8.176;2023-04-27T06:35:59;10.03;;;4.60;;
17441;SDS011;8838;50.144;8.176;2023-04-27T06:38:26;12.70;;;5.50;;
17441;SDS011;8838;50.144;8.176;2023-04-27T06:40:53;8.67;;;4.90;;
17441;SDS011;8838;50.144;8.176;2023-04-27T06:43:20;9.00;;;4.60;;
17441;SDS011;8838;50.144;8.176;2023-04-27T06:45:47;8.50;;;4.23;;
17441;SDS011;8838;50.144;8.176;2023-04-27T06:48:14;11.63;;;4.83;;
17441;SDS011;8838;50.144;8.176;2023-04-27T06:50:42;8.60;;;5.00;;
17441;SDS011;8838;50.144;8.176;2023-04-27T06:53:09;11.00;;;4.77;;
17441;SDS011;8838;50.144;8.176;2023-04-27T06:55:36;11.57;;;5.20;;
17441;SDS011;8838;50.144;8.176;2023-04-27T06:58:02;8.77;;;5.03;;
17441;SDS011;8838;50.144;8.176;2023-04-27T07:00:29;9.13;;;4.47;;
17441;SDS011;8838;50.144;8.176;2023-04-27T07:02:56;10.57;;;4.83;;
17441;SDS011;8838;50.144;8.176;2023-04-27T07:05:23;10.47;;;5.07;;
17441;SDS011;8838;50.144;8.176;2023-04-27T07:07:51;12.33;;;4.50;;
17441;SDS011;8838;50.144;8.176;2023-04-27T07:10:18;7.83;;;4.47;;
17441;SDS011;8838;50.144;8.176;2023-04-27T07:12:45;10.90;;;4.77;;
17441;SDS011;8838;50.144;8.176;2023-04-27T07:15:12;8.90;;;4.00;;
17441;SDS011;8838;50.144;8.176;2023-04-27T07:17:39;10.07;;;3.90;;
17441;SDS011;8838;50.144;8.176;2023-04-27T07:20:06;11.07;;;4.43;;
17441;SDS011;8838;50.144;8.176;2023-04-27T07:22:33;10.73;;;5.50;;
17441;SDS011;8838;50.144;8.176;2023-04-27T07:25:02;9.67;;;4.30;;
17441;SDS011;8838;50.144;8.176;2023-04-27T07:27:29;8.38;;;3.45;;
17441;SDS011;8838;50.144;8.176;2023-04-27T07:29:57;8.23;;;4.32;;
17441;SDS011;8838;50.144;8.176;2023-04-27T07:32:23;7.30;;;3.90;;
17441;SDS011;8838;50.144;8.176;2023-04-27T07:34:50;13.25;;;3.90;;
17441;SDS011;8838;50.144;8.176;2023-04-27T07:37:17;8.07;;;3.75;;
17441;SDS011;8838;50.144;8.176;2023-04-27T07:39:44;6.88;;;3.40;;
17441;SDS011;8838;50.144;8.176;2023-04-27T07:42:13;5.38;;;3.15;;
17441;SDS011;8838;50.144;8.176;2023-04-27T07:44:40;7.72;;;3.42;;
17441;SDS011;8838;50.144;8.176;2023-04-27T07:47:07;8.35;;;3.10;;
17441;SDS011;8838;50.144;8.176;2023-04-27T07:49:34;5.38;;;3.40;;
17441;SDS011;8838;50.144;8.176;2023-04-27T07:52:01;7.10;;;3.03;;
17441;SDS011;8838;50.144;8.176;2023-04-27T07:54:29;5.10;;;2.78;;
17441;SDS011;8838;50.144;8.176;2023-04-27T07:56:56;5.72;;;3.38;;
17441;SDS011;8838;50.144;8.176;2023-04-27T07:59:27;4.65;;;3.10;;
17441;SDS011;8838;50.144;8.176;2023-04-27T08:01:54;6.32;;;3.20;;
17441;SDS011;8838;50.144;8.176;2023-04-27T08:04:20;6.78;;;3.03;;
17441;SDS011;8838;50.144;8.176;2023-04-27T08:06:47;7.93;;;2.90;;
17441;SDS011;8838;50.144;8.176;2023-04-27T08:09:14;8.02;;;3.38;;
17441;SDS011;8838;50.144;8.176;2023-04-27T08:11:41;8.20;;;3.05;;
17441;SDS011;8838;50.144;8.176;2023-04-27T08:14:08;4.18;;;2.63;;
17441;SDS011;8838;50.144;8.176;2023-04-27T08:16:39;6.57;;;2.67;;
17441;SDS011;8838;50.144;8.176;2023-04-27T08:19:05;6.32;;;2.63;;
17441;SDS011;8838;50.144;8.176;2023-04-27T08:21:33;7.95;;;3.20;;
17441;SDS011;8838;50.144;8.176;2023-04-27T08:24:00;10.43;;;3.10;;
17441;SDS011;8838;50.144;8.176;2023-04-27T08:26:27;7.88;;;2.67;;
17441;SDS011;8838;50.144;8.176;2023-04-27T08:28:54;6.03;;;2.72;;
17441;SDS011;8838;50.144;8.176;2023-04-27T08:31:21;7.07;;;2.63;;
17441;SDS011;8838;50.144;8.176;2023-04-27T08:33:49;7.50;;;2.22;;
17441;SDS011;8838;50.144;8.176;2023-04-27T08:36:17;7.88;;;2.85;;
17441;SDS011;8838;50.144;8.176;2023-04-27T08:38:43;7.10;;;2.65;;
17441;SDS011;8838;50.144;8.176;2023-04-27T08:41:16;9.00;;;4.93;;
17441;SDS011;8838;50.144;8.176;2023-04-27T08:43:45;5.40;;;2.30;;
17441;SDS011;8838;50.144;8.176;2023-04-27T08:46:16;4.68;;;2.15;;
17441;SDS011;8838;50.144;8.176;2023-04-27T08:48:43;5.32;;;2.28;;
17441;SDS011;8838;50.144;8.176;2023-04-27T08:51:12;5.75;;;2.45;;
17441;SDS011;8838;50.144;8.176;2023-04-27T08:53:44;4.22;;;2.20;;
17441;SDS011;8838;50.144;8.176;2023-04-27T08:56:14;5.68;;;2.33;;
17441;SDS011;8838;50.144;8.176;2023-04-27T08:58:41;6.65;;;2.40;;
17441;SDS011;8838;50.144;8.176;2023-04-27T09:01:08;7.18;;;2.42;;
17441;SDS011;8838;50.144;8.176;2023-04-27T09:03:36;7.13;;;2.50;;
17441;SDS011;8838;50.144;8.176;2023-04-27T09:06:04;7.28;;;2.92;;
17441;SDS011;8838;50.144;8.176;2023-04-27T09:08:42;7.43;;;2.60;;
17441;SDS011;8838;50.144;8.176;2023-04-27T09:11:10;8.38;;;2.55;;
17441;SDS011;8838;50.144;8.176;2023-04-27T09:13:38;8.25;;;2.17;;
17441;SDS011;8838;50.144;8.176;2023-04-27T09:16:06;6.90;;;2.65;;
17441;SDS011;8838;50.144;8.176;2023-04-27T09:18:34;10.45;;;2.70;;
17441;SDS011;8838;50.144;8.176;2023-04-27T09:21:02;6.68;;;2.30;;
17441;SDS011;8838;50.144;8.176;2023-04-27T09:23:29;3.83;;;2.17;;
17441;SDS011;8838;50.144;8.176;2023-04-27T09:25:59;5.70;;;2.38;;
17441;SDS011;8838;50.144;8.176;2023-04-27T09:28:27;6.10;;;2.22;;
17441;SDS011;8838;50.144;8.176;2023-04-27T09:30:56;7.13;;;2.50;;
17441;SDS011;8838;50.144;8.176;2023-04-27T09:33:25;6.38;;;2.53;;
17441;SDS011;8838;50.144;8.176;2023-04-27T09:35:53;6.00;;;2.20;;
17441;SDS011;8838;50.144;8.176;2023-04-27T09:38:21;4.75;;;2.40;;
17441;SDS011;8838;50.144;8.176;2023-04-27T09:40:49;6.47;;;2.67;;
17441;SDS011;8838;50.144;8.176;2023-04-27T09:43:18;4.28;;;1.90;;
17441;SDS011;8838;50.144;8.176;2023-04-27T09:45:45;4.82;;;2.28;;
17441;SDS011;8838;50.144;8.176;2023-04-27T09:48:13;6.25;;;2.40;;
17441;SDS011;8838;50.144;8.176;2023-04-27T09:50:41;6.10;;;2.30;;
17441;SDS011;8838;50.144;8.176;2023-04-27T09:53:09;6.50;;;2.72;;
17441;SDS011;8838;50.144;8.176;2023-04-27T09:55:39;10.85;;;2.65;;
17441;SDS011;8838;50.144;8.176;2023-04-27T09:58:13;6.97;;;2.70;;
17441;SDS011;8838;50.144;8.176;2023-04-27T10:00:59;6.95;;;2.78;;
17441;SDS011;8838;50.144;8.176;2023-04-27T10:03:32;9.07;;;2.85;;
17441;SDS011;8838;50.144;8.176;2023-04-27T10:09:14;6.93;;;2.75;;
17441;SDS011;8838;50.144;8.176;2023-04-27T10:11:42;8.23;;;2.72;;
17441;SDS011;8838;50.144;8.176;2023-04-27T10:14:15;5.45;;;2.40;;
17441;SDS011;8838;50.144;8.176;2023-04-27T10:16:44;6.28;;;3.58;;
17441;SDS011;8838;50.144;8.176;2023-04-27T10:19:12;7.80;;;3.30;;
17441;SDS011;8838;50.144;8.176;2023-04-27T10:21:49;7.40;;;2.95;;
17441;SDS011;8838;50.144;8.176;2023-04-27T10:24:17;6.28;;;2.45;;
17441;SDS011;8838;50.144;8.176;2023-04-27T10:26:45;6.72;;;2.65;;
17441;SDS011;8838;50.144;8.176;2023-04-27T10:29:14;5.70;;;2.58;;
17441;SDS011;8838;50.144;8.176;2023-04-27T10:31:42;7.03;;;2.60;;
17441;SDS011;8838;50.144;8.176;2023-04-27T10:34:10;8.23;;;2.83;;
17441;SDS011;8838;50.144;8.176;2023-04-27T10:36:42;5.07;;;2.63;;
17441;SDS011;8838;50.144;8.176;2023-04-27T10:39:12;6.55;;;2.90;;
17441;SDS011;8838;50.144;8.176;2023-04-27T10:41:47;5.65;;;2.78;;
17441;SDS011;8838;50.144;8.176;2023-04-27T10:44:17;5.43;;;3.08;;
17441;SDS011;8838;50.144;8.176;2023-04-27T10:46:51;7.88;;;2.67;;
17441;SDS011;8838;50.144;8.176;2023-04-27T10:49:18;7.25;;;2.83;;
17441;SDS011;8838;50.144;8.176;2023-04-27T10:51:45;5.55;;;2.97;;
17441;SDS011;8838;50.144;8.176;2023-04-27T10:54:12;9.50;;;3.30;;
17441;SDS011;8838;50.144;8.176;2023-04-27T10:56:39;10.77;;;3.72;;
17441;SDS011;8838;50.144;8.176;2023-04-27T10:59:07;8.10;;;2.90;;
17441;SDS011;8838;50.144;8.176;2023-04-27T11:01:35;7.43;;;3.40;;
17441;SDS011;8838;50.144;8.176;2023-04-27T11:04:02;6.85;;;3.00;;
17441;SDS011;8838;50.144;8.176;2023-04-27T11:06:30;7.60;;;3.47;;
17441;SDS011;8838;50.144;8.176;2023-04-27T11:08:58;5.95;;;3.20;;
17441;SDS011;8838;50.144;8.176;2023-04-27T11:11:26;10.85;;;3.13;;
17441;SDS011;8838;50.144;8.176;2023-04-27T11:13:53;6.65;;;3.38;;
17441;SDS011;8838;50.144;8.176;2023-04-27T11:16:21;5.95;;;2.97;;
17441;SDS011;8838;50.144;8.176;2023-04-27T11:18:50;8.95;;;3.47;;
17441;SDS011;8838;50.144;8.176;2023-04-27T11:21:17;7.68;;;3.40;;
17441;SDS011;8838;50.144;8.176;2023-04-27T11:23:46;7.22;;;3.20;;
17441;SDS011;8838;50.144;8.176;2023-04-27T11:26:14;9.48;;;3.83;;
17441;SDS011;8838;50.144;8.176;2023-04-27T11:28:42;10.35;;;3.50;;
17441;SDS011;8838;50.144;8.176;2023-04-27T11:31:09;7.18;;;3.20;;
17441;SDS011;8838;50.144;8.176;2023-04-27T11:33:36;8.00;;;3.40;;
17441;SDS011;8838;50.144;8.176;2023-04-27T11:36:15;9.05;;;3.08;;
17441;SDS011;8838;50.144;8.176;2023-04-27T11:38:43;7.90;;;3.30;;
17441;SDS011;8838;50.144;8.176;2023-04-27T11:41:10;8.27;;;3.72;;
17441;SDS011;8838;50.144;8.176;2023-04-27T11:43:39;9.27;;;3.38;;
17441;SDS011;8838;50.144;8.176;2023-04-27T11:46:07;7.28;;;3.13;;
17441;SDS011;8838;50.144;8.176;2023-04-27T11:48:36;9.65;;;3.53;;
17441;SDS011;8838;50.144;8.176;2023-04-27T11:51:04;5.72;;;3.45;;
17441;SDS011;8838;50.144;8.176;2023-04-27T11:53:33;11.40;;;4.25;;
17441;SDS011;8838;50.144;8.176;2023-04-27T11:56:01;7.90;;;3.10;;
17441;SDS011;8838;50.144;8.176;2023-04-27T11:58:31;8.77;;;3.60;;
17441;SDS011;8838;50.144;8.176;2023-04-27T12:00:59;8.43;;;3.55;;
17441;SDS011;8838;50.144;8.176;2023-04-27T12:03:26;10.07;;;3.50;;
17441;SDS011;8838;50.144;8.176;2023-04-27T12:05:54;11.52;;;3.50;;
17441;SDS011;8838;50.144;8.176;2023-04-27T12:08:22;6.95;;;3.42;;
17441;SDS011;8838;50.144;8.176;2023-04-27T12:10:51;5.85;;;3.65;;
17441;SDS011;8838;50.144;8.176;2023-04-27T12:13:19;8.07;;;3.70;;
17441;SDS011;8838;50.144;8.176;2023-04-27T12:15:45;10.32;;;3.92;;
17441;SDS011;8838;50.144;8.176;2023-04-27T12:18:12;7.95;;;3.92;;
17441;SDS011;8838;50.144;8.176;2023-04-27T12:20:39;8.80;;;4.00;;
17441;SDS011;8838;50.144;8.176;2023-04-27T12:23:06;8.45;;;3.72;;
17441;SDS011;8838;50.144;8.176;2023-04-27T12:25:33;14.75;;;4.60;;
17441;SDS011;8838;50.144;8.176;2023-04-27T12:28:01;11.15;;;4.00;;
17441;SDS011;8838;50.144;8.176;2023-04-27T12:30:30;9.23;;;3.90;;
17441;SDS011;8838;50.144;8.176;2023-04-27T12:32:57;11.65;;;3.95;;
17441;SDS011;8838;50.144;8.176;2023-04-27T12:35:24;8.20;;;3.90;;
17441;SDS011;8838;50.144;8.176;2023-04-27T12:37:57;12.15;;;4.05;;
17441;SDS011;8838;50.144;8.176;2023-04-27T12:40:24;8.52;;;3.83;;
17441;SDS011;8838;50.144;8.176;2023-04-27T12:42:50;9.20;;;3.72;;
17441;SDS011;8838;50.144;8.176;2023-04-27T12:45:19;9.43;;;3.58;;
17441;SDS011;8838;50.144;8.176;2023-04-27T12:47:46;8.73;;;4.10;;
17441;SDS011;8838;50.144;8.176;2023-04-27T12:50:13;9.27;;;3.63;;
17441;SDS011;8838;50.144;8.176;2023-04-27T12:52:40;10.32;;;4.43;;
17441;SDS011;8838;50.144;8.176;2023-04-27T12:55:08;9.52;;;3.63;;
17441;SDS011;8838;50.144;8.176;2023-04-27T12:57:35;8.82;;;4.07;;
17441;SDS011;8838;50.144;8.176;2023-04-27T13:00:02;9.73;;;3.58;;
17441;SDS011;8838;50.144;8.176;2023-04-27T13:02:33;8.32;;;3.55;;
17441;SDS011;8838;50.144;8.176;2023-04-27T13:05:00;6.55;;;3.22;;
17441;SDS011;8838;50.144;8.176;2023-04-27T13:07:30;7.93;;;3.80;;
17441;SDS011;8838;50.144;8.176;2023-04-27T13:09:57;8.57;;;3.72;;
17441;SDS011;8838;50.144;8.176;2023-04-27T13:12:23;7.13;;;3.40;;
17441;SDS011;8838;50.144;8.176;2023-04-27T13:14:52;8.93;;;3.22;;
17441;SDS011;8838;50.144;8.176;2023-04-27T13:17:18;9.65;;;3.55;;
17441;SDS011;8838;50.144;8.176;2023-04-27T13:19:47;11.93;;;6.80;;
17441;SDS011;8838;50.144;8.176;2023-04-27T13:22:13;10.30;;;4.43;;
17441;SDS011;8838;50.144;8.176;2023-04-27T13:24:40;8.55;;;4.20;;
17441;SDS011;8838;50.144;8.176;2023-04-27T13:27:07;7.35;;;3.78;;
17441;SDS011;8838;50.144;8.176;2023-04-27T13:29:34;6.60;;;3.90;;
17441;SDS011;8838;50.144;8.176;2023-04-27T13:32:01;8.20;;;3.83;;
17441;SDS011;8838;50.144;8.176;2023-04-27T13:34:27;11.52;;;4.00;;
17441;SDS011;8838;50.144;8.176;2023-04-27T13:36:57;7.55;;;3.75;;
17441;SDS011;8838;50.144;8.176;2023-04-27T13:39:23;9.90;;;4.38;;
17441;SDS011;8838;50.144;8.176;2023-04-27T13:41:50;7.22;;;3.70;;
17441;SDS011;8838;50.144;8.176;2023-04-27T13:44:17;9.60;;;3.92;;
17441;SDS011;8838;50.144;8.176;2023-04-27T13:46:44;7.97;;;3.17;;
17441;SDS011;8838;50.144;8.176;2023-04-27T13:49:11;10.90;;;3.63;;
17441;SDS011;8838;50.144;8.176;2023-04-27T13:51:38;8.80;;;3.90;;
17441;SDS011;8838;50.144;8.176;2023-04-27T13:54:06;10.20;;;4.10;;
17441;SDS011;8838;50.144;8.176;2023-04-27T13:56:33;8.60;;;3.00;;
17441;SDS011;8838;50.144;8.176;2023-04-27T13:59:02;6.93;;;2.83;;
17441;SDS011;8838;50.144;8.176;2023-04-27T14:01:28;6.90;;;3.03;;
17441;SDS011;8838;50.144;8.176;2023-04-27T14:03:56;7.63;;;3.70;;
17441;SDS011;8838;50.144;8.176;2023-04-27T14:06:22;6.22;;;3.30;;
17441;SDS011;8838;50.144;8.176;2023-04-27T14:08:51;4.78;;;2.90;;
17441;SDS011;8838;50.144;8.176;2023-04-27T14:11:19;7.53;;;3.30;;
17441;SDS011;8838;50.144;8.176;2023-04-27T14:13:47;11.10;;;3.55;;
17441;SDS011;8838;50.144;8.176;2023-04-27T14:16:14;6.03;;;3.08;;
17441;SDS011;8838;50.144;8.176;2023-04-27T14:18:41;6.93;;;3.22;;
17441;SDS011;8838;50.144;8.176;2023-04-27T14:21:08;8.57;;;3.65;;
17441;SDS011;8838;50.144;8.176;2023-04-27T14:23:34;6.80;;;3.45;;
17441;SDS011;8838;50.144;8.176;2023-04-27T14:26:01;7.47;;;3.40;;
17441;SDS011;8838;50.144;8.176;2023-04-27T14:28:30;5.70;;;3.33;;
17441;SDS011;8838;50.144;8.176;2023-04-27T14:30:57;10.30;;;4.57;;
17441;SDS011;8838;50.144;8.176;2023-04-27T14:33:24;6.97;;;3.63;;
17441;SDS011;8838;50.144;8.176;2023-04-27T14:35:51;9.45;;;4.07;;
17441;SDS011;8838;50.144;8.176;2023-04-27T14:38:18;8.57;;;3.35;;
17441;SDS011;8838;50.144;8.176;2023-04-27T14:40:44;12.68;;;3.40;;
17441;SDS011;8838;50.144;8.176;2023-04-27T14:43:12;5.90;;;3.00;;
17441;SDS011;8838;50.144;8.176;2023-04-27T14:45:40;8.70;;;3.60;;
17441;SDS011;8838;50.144;8.176;2023-04-27T14:48:07;8.23;;;3.58;;
17441;SDS011;8838;50.144;8.176;2023-04-27T14:50:34;8.88;;;3.72;;
17441;SDS011;8838;50.144;8.176;2023-04-27T14:53:00;11.45;;;3.53;;
17441;SDS011;8838;50.144;8.176;2023-04-27T14:55:27;9.00;;;3.63;;
17441;SDS011;8838;50.144;8.176;2023-04-27T14:57:55;7.35;;;3.38;;
17441;SDS011;8838;50.144;8.176;2023-04-27T15:00:22;10.77;;;3.22;;
17441;SDS011;8838;50.144;8.176;2023-04-27T15:02:51;6.68;;;3.13;;
17441;SDS011;8838;50.144;8.176;2023-04-27T15:05:19;9.00;;;3.00;;